Stations météo

réclame
Mon MeteoGroup
Kinbrace, Grande-Bretagne (99016): Température de l'air & dewpoint: 10.12.2017 18:00:00 - 16.12.2017 18:00:00 (GMT)Kinbrace, Grande-Bretagne (99016): Vitesse du vent & gusts: 10.12.2017 18:00:00 - 16.12.2017 18:00:00 (GMT)Kinbrace, Grande-Bretagne (99016): Direction du vent: 10.12.2017 18:00:00 - 16.12.2017 18:00:00 (GMT)Kinbrace, Grande-Bretagne (99016): Quantités de précipitations: 10.12.2017 18:00:00 - 16.12.2017 18:00:00 (GMT)
Date & Time tt [°C] td [°C] ff [km/h] ff [knt] fx [km/h] fx [knt] dd rr [mm]
16.12.2017 18:00:00 -1,8 -2,6 5 3 - - S -
16.12.2017 17:00:00 - - - - - - - -
16.12.2017 16:00:00 -1,8 -2,3 4 2 - - SSE 0,0
16.12.2017 15:00:00 -1,0 -2,6 0 0 - - N 0,0
16.12.2017 14:00:00 1,3 0,0 8 4 - - N 0,0
16.12.2017 13:00:00 1,1 -0,1 11 6 - - NNE 0,0
16.12.2017 12:00:00 0,2 -1,3 8 4 - - N 0,0
16.12.2017 11:00:00 0,4 -0,6 8 4 - - N 0,0
16.12.2017 10:00:00 -0,3 -1,0 8 4 - - NNE 0,0
16.12.2017 09:00:00 0,6 -0,2 11 6 - - NW 0,0
16.12.2017 08:00:00 0,3 -0,6 8 4 - - NNW 0,0
16.12.2017 07:00:00 0,6 0,3 16 9 - - NW 0,0
16.12.2017 06:00:00 0,4 0,1 15 8 - - NW 0,0
16.12.2017 05:00:00 -0,1 -0,5 5 3 - - NE 0,0
16.12.2017 04:00:00 -1,1 -1,7 5 3 - - N 0,0
16.12.2017 03:00:00 -0,3 -0,7 8 4 - - NW 0,0
16.12.2017 02:00:00 -0,8 -1,9 4 2 - - NNW 0,0
16.12.2017 01:00:00 -0,9 -2,2 8 4 - - NNW 0,0
16.12.2017 00:00:00 -1,0 -2,2 9 5 - - NNW 0,0
15.12.2017 23:00:00 -0,6 -1,7 8 4 - - NNW 0,0
15.12.2017 22:00:00 -0,5 -1,6 8 4 - - N 0,0
15.12.2017 21:00:00 0,1 -0,9 5 3 - - NNE 0,0
15.12.2017 20:00:00 0,9 -0,1 11 6 - - WNW 0,0
15.12.2017 19:00:00 0,8 0,0 21 11 - - NW 0,0
15.12.2017 18:00:00 - - - - - - - 0,2
15.12.2017 17:00:00 0,8 0,2 15 8 - - NW 0,4
15.12.2017 16:00:00 1,2 0,4 18 10 - - N 0,4
15.12.2017 15:00:00 1,0 0,3 8 4 - - N 0,2
15.12.2017 14:00:00 1,5 0,3 13 7 - - NNW 0,0
15.12.2017 13:00:00 1,5 0,7 9 5 - - NNW 0,0
15.12.2017 12:00:00 2,0 1,4 9 5 - - N 0,0
15.12.2017 11:00:00 1,3 0,6 11 6 - - N 0,0
15.12.2017 10:00:00 1,8 0,5 16 9 - - N 0,0
15.12.2017 09:00:00 1,3 0,2 11 6 - - N 0,0
15.12.2017 08:00:00 1,0 -0,2 15 8 - - NNE 0,0
15.12.2017 07:00:00 1,5 0,1 11 6 - - NNE 0,2
15.12.2017 06:00:00 1,5 -0,4 13 7 - - NNE 0,0
15.12.2017 05:00:00 1,9 1,0 16 9 - - NNE 0,0
15.12.2017 04:00:00 1,9 0,7 22 12 46 25 N 0,8
15.12.2017 03:00:00 2,3 1,0 18 10 - - N 0,4
15.12.2017 02:00:00 2,4 1,0 16 9 - - N 1,8
15.12.2017 01:00:00 1,4 0,8 15 8 - - NNW 0,0
15.12.2017 00:00:00 1,7 1,4 15 8 - - N 0,0
14.12.2017 23:00:00 1,2 0,8 5 3 - - NNW 0,0
14.12.2017 22:00:00 1,3 0,9 15 8 - - N 0,0
14.12.2017 21:00:00 0,3 -0,4 8 4 - - NW 0,0
14.12.2017 20:00:00 0,8 0,1 11 6 - - NE 0,0
14.12.2017 19:00:00 1,0 0,0 11 6 - - NNW 0,4
14.12.2017 18:00:00 1,9 0,8 13 7 - - ENE 0,0
14.12.2017 17:00:00 1,0 0,5 9 5 - - E 0,4
14.12.2017 16:00:00 1,1 0,5 11 6 - - E 3,0
14.12.2017 15:00:00 1,4 0,5 8 4 - - SE 0,0
14.12.2017 14:00:00 1,9 0,7 18 10 - - SW 0,0
14.12.2017 13:00:00 1,8 0,5 13 7 - - WSW 0,0
14.12.2017 12:00:00 1,7 0,2 9 5 - - S 0,0
14.12.2017 11:00:00 1,3 -0,2 5 3 - - S 0,0
14.12.2017 10:00:00 -2,4 -3,3 8 4 - - E 0,0
14.12.2017 09:00:00 -2,3 -3,1 13 7 - - E 0,0
14.12.2017 08:00:00 -2,9 -3,6 8 4 - - E 0,0
14.12.2017 07:00:00 -1,8 -2,7 4 2 - - NE 0,0
14.12.2017 06:00:00 -2,0 -3,0 5 3 - - NNW 0,0
14.12.2017 05:00:00 -0,6 -2,3 13 7 - - W 0,0
14.12.2017 04:00:00 -2,6 -4,0 4 2 - - W 0,0
14.12.2017 03:00:00 0,5 -0,3 13 7 - - W 0,0
14.12.2017 02:00:00 -0,4 -0,8 5 3 - - E 0,0
14.12.2017 01:00:00 -0,1 -0,7 4 2 - - NNW 0,0
14.12.2017 00:00:00 0,4 -1,3 18 10 - - W 0,0
13.12.2017 23:00:00 0,2 -2,1 18 10 - - W 0,0
13.12.2017 22:00:00 -0,6 -2,5 13 7 - - W 0,0
13.12.2017 21:00:00 -1,0 -2,2 2 1 - - E 0,0
13.12.2017 20:00:00 0,3 -1,2 9 5 - - SW 0,0
13.12.2017 19:00:00 -0,6 -2,4 21 11 - - WSW 0,0
13.12.2017 18:00:00 0,8 -1,1 13 7 - - W 0,0
13.12.2017 17:00:00 0,7 -2,0 22 12 - - W 0,0
13.12.2017 16:00:00 -0,1 -2,7 9 5 - - WNW 0,0
13.12.2017 15:00:00 1,7 -1,1 18 10 - - W 0,2
13.12.2017 14:00:00 1,7 0,0 11 6 - - W 0,6
13.12.2017 13:00:00 1,9 0,0 13 7 - - WSW 0,6
13.12.2017 12:00:00 1,6 0,1 13 7 - - WSW 0,4
13.12.2017 11:00:00 2,2 0,6 15 8 - - WSW 0,0
13.12.2017 10:00:00 2,2 0,5 8 4 - - W 0,4
13.12.2017 09:00:00 2,0 0,5 4 2 - - ESE 0,0
13.12.2017 08:00:00 2,4 0,5 21 11 - - SSE 0,2
13.12.2017 07:00:00 2,9 0,4 16 9 - - SE 0,0
13.12.2017 06:00:00 2,5 -0,2 16 9 - - ESE 0,0
13.12.2017 05:00:00 1,5 -0,6 11 6 - - SSE 0,0
13.12.2017 04:00:00 0,7 -1,1 9 5 - - SSW 0,0
13.12.2017 03:00:00 2,1 -0,1 9 5 - - WSW 0,0
13.12.2017 02:00:00 0,2 -1,9 9 5 - - SW 0,2
13.12.2017 01:00:00 0,6 -1,3 9 5 - - WSW 0,0
13.12.2017 00:00:00 2,0 0,3 16 9 - - WSW 0,8
12.12.2017 23:00:00 1,6 0,5 9 5 - - E 0,4
12.12.2017 22:00:00 2,9 0,8 9 5 - - SE 2,4
12.12.2017 21:00:00 2,9 0,9 22 12 - - SSE 7,8
12.12.2017 20:00:00 2,0 0,8 22 12 - - ESE 0,0
12.12.2017 19:00:00 1,9 0,6 - - - - - 0,0
12.12.2017 18:00:00 2,9 0,4 - - - - - 0,0
12.12.2017 17:00:00 2,7 0,3 - - - - - 0,0
12.12.2017 16:00:00 0,6 -1,4 - - - - - 0,0
12.12.2017 15:00:00 -2,4 -3,9 - - - - - 0,0
12.12.2017 14:00:00 -2,5 -3,7 - - - - - 0,0
12.12.2017 13:00:00 -2,8 -4,4 - - - - - -
12.12.2017 12:00:00 -3,7 -5,4 - - - - - 0,0
12.12.2017 11:00:00 -4,5 -5,9 - - - - - 0,0
12.12.2017 10:00:00 - - - - - - - -
12.12.2017 09:00:00 -4,3 -5,3 5 3 - - E 0,0
12.12.2017 08:00:00 -3,8 -5,2 4 2 - - E 0,0
12.12.2017 07:00:00 -2,5 -3,9 2 1 - - E 0,0
12.12.2017 06:00:00 -2,2 -3,2 8 4 - - E 0,0
12.12.2017 05:00:00 -3,9 -5,0 5 3 - - E 0,0
12.12.2017 04:00:00 -1,8 -2,7 8 4 - - E 0,0
12.12.2017 03:00:00 -1,4 -2,5 11 6 - - E 0,0
12.12.2017 02:00:00 -0,9 -1,7 2 1 - - E 0,0
12.12.2017 01:00:00 -2,5 -2,9 5 3 - - E 0,0
12.12.2017 00:00:00 -3,0 -3,5 4 2 - - E 0,0
11.12.2017 23:00:00 -2,6 -2,9 2 1 - - E 0,0
11.12.2017 22:00:00 -2,7 -3,0 4 2 - - E 0,0
11.12.2017 21:00:00 -2,2 -2,7 4 2 - - E 0,0
11.12.2017 20:00:00 -0,9 -1,3 4 2 - - N 0,0
11.12.2017 19:00:00 0,5 0,2 4 2 - - E 0,0
11.12.2017 18:00:00 0,6 0,3 4 2 - - ENE 0,0
11.12.2017 17:00:00 -0,5 -1,1 2 1 - - E 0,0
11.12.2017 16:00:00 0,6 0,1 5 3 - - E 0,0
11.12.2017 15:00:00 -0,1 -1,2 4 2 - - SSE 0,0
11.12.2017 14:00:00 -0,6 -2,0 8 4 - - NNW 0,0
11.12.2017 13:00:00 0,8 -0,5 8 4 - - N 0,0
11.12.2017 12:00:00 1,2 0,1 13 7 - - NNE 0,0
11.12.2017 11:00:00 0,9 0,1 13 7 - - N 0,0
11.12.2017 10:00:00 0,8 0,3 15 8 - - N 0,0
11.12.2017 09:00:00 0,6 0,2 13 7 - - N 0,0
11.12.2017 08:00:00 0,6 0,3 4 2 - - E 0,0
11.12.2017 07:00:00 0,8 0,4 11 6 - - NW 0,0
11.12.2017 06:00:00 0,2 0,0 2 1 - - ENE 0,0
11.12.2017 05:00:00 0,4 0,2 9 5 - - NW 0,0
11.12.2017 04:00:00 0,5 0,3 2 1 - - E 0,0
11.12.2017 03:00:00 0,4 0,2 4 2 - - N 0,0
11.12.2017 02:00:00 0,3 0,1 9 5 - - NW 0,0
11.12.2017 01:00:00 0,3 0,1 4 2 - - NNE 0,0
11.12.2017 00:00:00 0,4 0,1 5 3 - - NNW 0,0
10.12.2017 23:00:00 0,4 0,1 2 1 - - NE 0,0
10.12.2017 22:00:00 0,6 0,3 2 1 - - ESE 0,0
10.12.2017 21:00:00 0,5 0,3 8 4 - - NNW 0,0
10.12.2017 20:00:00 0,4 0,3 4 2 - - NNE 0,0
10.12.2017 19:00:00 0,2 0,0 2 1 - - N 0,0
10.12.2017 18:00:00 -0,5 -0,7 2 1 - - N 0,0

tt = Température de l'air
td = dewpoint
ff = Vitesse du vent
fx = gusts
dd = Direction du vent
rr = Quantités de précipitations

stations d'obs. à proximité